Time;durP1;ratioP1;P1;durP2;ratioP2;P2;SDS_P1;SDS_P2;PMS_P1;PMS_P2;Temp;Humidity;BMP_temperature;BMP_pressure;BME280_temperature;BME280_humidity;BME280_pressure;Samples;Min_cycle;Max_cycle;Signal;HPM_P1;HPM_P2
2022/04/17 00:00:14;;;;;;;10.05;4.43;;;;;;;9.16;39.85;101697.31;4842303;29;101565;-82
2022/04/17 00:02:39;;;;;;;11.43;5.25;;;;;;;9.07;39.62;101685.16;4843282;29;101464;-82
2022/04/17 00:05:05;;;;;;;9.18;4.70;;;;;;;8.91;39.67;101669.53;4827436;29;96698;-84
2022/04/17 00:07:31;;;;;;;13.80;4.85;;;;;;;9.13;39.53;101689.44;4828528;29;96911;-82
2022/04/17 00:09:58;;;;;;;8.07;4.20;;;;;;;8.98;39.74;101665.97;4827420;29;101196;-83
2022/04/17 00:12:24;;;;;;;10.63;4.85;;;;;;;8.79;39.74;101637.28;4843997;29;98202;-83
2022/04/17 00:14:50;;;;;;;12.43;3.78;;;;;;;9.00;39.06;101675.56;4842632;29;97212;-82
2022/04/17 00:17:16;;;;;;;9.52;3.70;;;;;;;9.05;39.07;101686.03;4856765;28;97193;-83
2022/04/17 00:19:41;;;;;;;9.60;3.88;;;;;;;8.75;39.28;101642.53;4826562;29;101568;-85
2022/04/17 00:22:07;;;;;;;8.23;3.97;;;;;;;8.89;39.22;101660.81;4827344;29;101325;-83
2022/04/17 00:24:33;;;;;;;9.95;4.30;;;;;;;8.98;39.11;101676.47;4843178;29;96972;-82
2022/04/17 00:27:00;;;;;;;8.07;3.63;;;;;;;8.90;39.24;101670.38;4842958;29;96954;-84
2022/04/17 00:29:29;;;;;;;8.18;3.90;;;;;;;8.87;39.27;101670.41;4827631;29;101769;-83
2022/04/17 00:31:56;;;;;;;8.05;3.60;;;;;;;8.92;39.06;101685.22;4842733;28;101345;-83
2022/04/17 00:34:23;;;;;;;8.35;3.83;;;;;;;8.88;39.67;101677.41;4862233;28;97164;-83
2022/04/17 00:36:49;;;;;;;7.13;3.13;;;;;;;8.86;39.08;101687.00;4846491;28;96995;-84
2022/04/17 00:39:14;;;;;;;6.80;3.22;;;;;;;8.84;39.64;101690.53;4861825;28;101434;-82
2022/04/17 00:41:40;;;;;;;8.18;3.55;;;;;;;8.67;39.62;101673.13;4844865;28;101263;-84
2022/04/17 00:44:10;;;;;;;6.35;3.05;;;;;;;8.78;39.63;101693.13;4855410;28;96773;-84
2022/04/17 00:46:36;;;;;;;8.90;3.85;;;;;;;8.50;39.92;101634.81;4841884;29;97147;-83
2022/04/17 00:49:02;;;;;;;8.77;3.70;;;;;;;8.71;40.45;101674.88;4841318;29;98473;-83
2022/04/17 00:51:27;;;;;;;7.88;3.70;;;;;;;8.67;40.74;101670.50;4852271;28;96942;-83
2022/04/17 00:53:53;;;;;;;8.27;3.60;;;;;;;8.62;40.61;101667.94;4846396;28;97031;-83
2022/04/17 00:56:21;;;;;;;8.38;4.07;;;;;;;8.60;41.45;101674.91;4878267;28;96825;-83
2022/04/17 00:58:46;;;;;;;9.88;4.63;;;;;;;8.51;41.90;101669.72;4845525;28;99506;-84
2022/04/17 01:01:12;;;;;;;9.20;4.50;;;;;;;8.41;42.22;101647.97;4861195;28;101526;-84
2022/04/17 01:03:38;;;;;;;11.43;5.03;;;;;;;8.48;42.13;101682.81;4861481;28;97092;-83
2022/04/17 01:06:04;;;;;;;10.13;4.68;;;;;;;8.42;42.23;101659.28;4845396;28;97432;-83
2022/04/17 01:08:30;;;;;;;12.77;5.03;;;;;;;8.43;42.75;101664.50;4844353;28;101527;-83
2022/04/17 01:10:58;;;;;;;8.63;5.00;;;;;;;8.37;43.01;101667.97;4844883;28;101680;-84
2022/04/17 01:13:24;;;;;;;10.82;5.43;;;;;;;8.21;43.30;101655.84;4861640;28;96760;-82
2022/04/17 01:15:49;;;;;;;11.75;5.88;;;;;;;7.96;43.64;101622.78;4845363;28;97288;-83
2022/04/17 01:18:15;;;;;;;12.80;5.82;;;;;;;8.28;43.73;101678.47;4845349;28;100750;-83
2022/04/17 01:20:42;;;;;;;12.18;5.68;;;;;;;8.12;43.87;101659.34;4846122;28;96670;-83
2022/04/17 01:28:36;;;;;;;13.57;5.88;;;;;;;8.18;44.27;101662.84;4863125;28;101328;-83
2022/04/17 01:31:02;;;;;;;16.55;6.15;;;;;;;8.18;44.14;101661.09;4844638;28;100746;-84
2022/04/17 01:33:29;;;;;;;14.65;6.75;;;;;;;8.20;44.55;101661.06;4844952;28;96991;-83
2022/04/17 01:35:55;;;;;;;12.25;6.07;;;;;;;8.23;43.88;101663.66;4860787;28;96791;-84
2022/04/17 01:38:21;;;;;;;11.02;6.20;;;;;;;8.05;44.73;101657.59;4860648;28;102613;-83
2022/04/17 01:40:46;;;;;;;18.23;6.70;;;;;;;7.93;44.49;101647.19;4860440;28;101162;-85
2022/04/17 01:43:12;;;;;;;15.05;6.40;;;;;;;7.86;44.91;101651.56;4859861;28;97004;-83
2022/04/17 01:45:38;;;;;;;12.98;6.85;;;;;;;8.02;45.00;101667.22;4844630;28;97114;-83
2022/04/17 01:48:04;;;;;;;12.95;6.47;;;;;;;8.01;44.88;101668.09;4860285;28;101571;-82
2022/04/17 01:50:31;;;;;;;12.88;6.10;;;;;;;7.94;45.49;101652.44;4860895;28;101337;-83
2022/04/17 01:52:59;;;;;;;12.50;5.97;;;;;;;7.84;45.37;101650.69;4876863;28;97044;-83
2022/04/17 01:55:26;;;;;;;13.77;6.13;;;;;;;7.85;45.08;101655.06;4860898;28;97066;-83
2022/04/17 01:57:51;;;;;;;14.38;5.82;;;;;;;7.92;44.80;101658.53;4875304;28;101494;-84
2022/04/17 02:00:17;;;;;;;12.40;5.45;;;;;;;7.79;44.87;101635.88;4856639;29;98071;-84
2022/04/17 02:02:43;;;;;;;12.15;5.60;;;;;;;7.84;44.94;101653.31;4841560;29;96988;-83
2022/04/17 02:05:09;;;;;;;11.35;5.80;;;;;;;7.87;44.67;101645.44;4841371;29;97310;-84
2022/04/17 02:07:36;;;;;;;10.93;5.50;;;;;;;7.86;44.85;101642.84;4857390;29;101643;-84
2022/04/17 02:10:06;;;;;;;10.63;5.28;;;;;;;7.81;44.49;101655.91;4825570;29;101785;-84
2022/04/17 02:12:33;;;;;;;11.00;5.80;;;;;;;7.78;45.03;101639.38;4841958;29;96613;-83
2022/04/17 02:14:59;;;;;;;12.60;5.63;;;;;;;7.76;45.17;101634.13;4841936;28;96949;-83
2022/04/17 02:17:25;;;;;;;12.15;5.07;;;;;;;7.65;45.31;101618.50;4857778;28;101422;-83
2022/04/17 02:19:51;;;;;;;14.00;4.60;;;;;;;7.78;45.28;101626.31;4859648;28;101728;-85
2022/04/17 02:22:17;;;;;;;9.88;5.30;;;;;;;7.70;45.00;101614.09;4859528;28;96595;-83
2022/04/17 02:24:43;;;;;;;10.38;5.00;;;;;;;7.66;45.19;101617.59;4875839;28;96906;-83
2022/04/17 02:27:08;;;;;;;9.98;4.78;;;;;;;7.66;45.12;101611.50;4875660;28;101233;-82
2022/04/17 02:29:34;;;;;;;12.40;5.10;;;;;;;7.72;45.14;101633.28;4875650;28;100783;-83
2022/04/17 02:31:59;;;;;;;12.85;5.13;;;;;;;7.68;45.29;101638.53;4860129;28;97291;-83
2022/04/17 02:34:25;;;;;;;11.60;5.20;;;;;;;7.64;45.58;101637.63;4875253;28;97030;-84
2022/04/17 02:36:51;;;;;;;12.88;5.80;;;;;;;7.52;45.29;101618.50;4844103;28;100981;-85
2022/04/17 02:39:18;;;;;;;11.13;5.13;;;;;;;7.54;44.98;101616.75;4860313;28;100451;-83
2022/04/17 02:41:44;;;;;;;9.23;4.60;;;;;;;7.56;45.46;101610.63;4862766;28;96971;-83
2022/04/17 02:44:09;;;;;;;10.02;5.25;;;;;;;7.56;45.77;101634.16;4853899;29;97421;-83
2022/04/17 02:49:19;;;;;;;10.73;4.75;;;;;;;7.51;45.87;101640.28;4865008;28;100909;-84
2022/04/17 02:51:45;;;;;;;8.65;4.57;;;;;;;7.42;45.99;101636.81;4857075;29;97093;-83
2022/04/17 02:54:10;;;;;;;13.68;5.03;;;;;;;7.56;45.96;101643.75;4872246;28;97182;-84
2022/04/17 02:56:36;;;;;;;12.40;4.80;;;;;;;7.60;46.11;101651.59;4840946;29;100497;-83
2022/04/17 02:59:01;;;;;;;10.32;5.05;;;;;;;7.54;45.69;101645.50;4856442;29;100583;-84
2022/04/17 03:06:55;;;;;;;9.38;4.55;;;;;;;7.46;46.07;101655.94;4851669;29;101587;-83
2022/04/17 03:09:21;;;;;;;8.23;4.70;;;;;;;7.46;46.17;101659.44;4856429;29;101724;-84
2022/04/17 03:11:47;;;;;;;12.93;4.70;;;;;;;7.45;45.81;101662.06;4840731;29;96866;-83
2022/04/17 03:14:13;;;;;;;12.35;5.30;;;;;;;7.12;46.29;101635.03;4842830;29;96712;-84
2022/04/17 03:16:38;;;;;;;12.10;5.32;;;;;;;7.30;46.18;101659.41;4844278;29;99927;-84
2022/04/17 03:19:05;;;;;;;11.60;5.07;;;;;;;7.31;46.42;101655.94;4859515;28;101423;-84
2022/04/17 03:21:31;;;;;;;10.18;5.63;;;;;;;7.35;46.16;101670.75;4860433;29;96698;-83
2022/04/17 03:23:58;;;;;;;8.48;4.70;;;;;;;7.13;46.04;101634.19;4851789;28;97169;-83
2022/04/17 03:26:23;;;;;;;11.45;5.35;;;;;;;7.33;46.33;101670.75;4863978;28;99982;-83
2022/04/17 03:28:49;;;;;;;9.07;4.72;;;;;;;7.29;46.00;101663.78;4850662;28;100504;-82
2022/04/17 03:31:14;;;;;;;11.30;5.13;;;;;;;7.26;46.19;101661.16;4848057;28;96716;-84
2022/04/17 03:33:40;;;;;;;7.28;4.10;;;;;;;7.03;46.08;101629.78;4863391;28;96880;-83
2022/04/17 03:36:06;;;;;;;9.98;4.97;;;;;;;7.01;46.02;101606.31;4862017;28;99984;-84
2022/04/17 03:38:32;;;;;;;11.88;5.70;;;;;;;7.31;46.48;101655.94;4846216;28;101398;-82
2022/04/17 03:40:59;;;;;;;8.20;5.13;;;;;;;7.22;46.55;101662.91;4862520;28;96658;-84
2022/04/17 03:43:25;;;;;;;10.75;5.50;;;;;;;7.22;46.68;101655.06;4897535;28;96930;-84
2022/04/17 03:45:51;;;;;;;12.43;5.55;;;;;;;7.28;46.40;101658.56;4881158;28;101542;-83
2022/04/17 03:48:18;;;;;;;11.55;5.43;;;;;;;7.19;46.54;101660.28;4865503;28;101514;-83
2022/04/17 03:50:44;;;;;;;12.23;5.72;;;;;;;7.20;46.49;101663.78;4882138;28;97109;-83
2022/04/17 03:53:10;;;;;;;13.25;6.60;;;;;;;7.22;46.83;101662.03;4866350;28;97247;-84
2022/04/17 03:55:36;;;;;;;12.02;5.93;;;;;;;7.19;46.60;101657.69;4881529;28;101397;-83
2022/04/17 03:58:04;;;;;;;12.65;6.45;;;;;;;7.16;46.53;101668.13;4880259;28;98566;-84
2022/04/17 04:00:30;;;;;;;12.13;6.63;;;;;;;7.20;46.88;101666.38;4880769;28;97076;-83
2022/04/17 04:02:56;;;;;;;9.80;5.67;;;;;;;7.17;47.09;101661.16;4881682;28;97165;-85
2022/04/17 04:05:21;;;;;;;13.15;6.10;;;;;;;7.22;46.92;101672.47;4865144;28;101297;-84
2022/04/17 04:07:47;;;;;;;10.98;5.97;;;;;;;6.99;46.96;101633.28;4865539;28;101320;-83
2022/04/17 04:10:13;;;;;;;13.33;6.17;;;;;;;7.11;46.45;101648.09;4865253;28;96766;-83
2022/04/17 04:12:39;;;;;;;15.32;6.95;;;;;;;7.02;47.29;101647.19;4881310;28;96892;-83
2022/04/17 04:15:06;;;;;;;14.60;7.00;;;;;;;7.17;47.01;101661.16;4876324;28;97633;-83
2022/04/17 04:17:32;;;;;;;12.70;6.63;;;;;;;7.03;47.12;101641.09;4847125;28;101807;-83
2022/04/17 04:19:57;;;;;;;14.00;7.03;;;;;;;7.19;46.95;101659.44;4846087;28;96943;-84
2022/04/17 04:22:23;;;;;;;14.88;6.90;;;;;;;7.07;47.00;101654.16;4846735;28;96866;-83
2022/04/17 04:24:48;;;;;;;12.93;5.97;;;;;;;7.24;46.88;101668.13;4876886;28;101026;-83
2022/04/17 04:29:58;;;;;;;16.63;6.88;;;;;;;7.22;46.88;101657.69;4864820;28;99655;-84
2022/04/17 04:32:24;;;;;;;12.30;6.60;;;;;;;7.21;47.09;101658.56;4845987;28;96964;-83
2022/04/17 04:34:49;;;;;;;13.02;7.25;;;;;;;7.25;46.66;101664.66;4861631;28;98137;-83
2022/04/17 04:37:15;;;;;;;14.32;6.53;;;;;;;7.21;47.10;101665.50;4845570;28;100554;-83
2022/04/17 04:39:41;;;;;;;11.70;6.30;;;;;;;7.17;47.58;101661.16;4861985;28;96740;-82
2022/04/17 04:42:07;;;;;;;16.35;6.63;;;;;;;7.23;47.46;101667.25;4842624;29;96998;-83
2022/04/17 04:44:32;;;;;;;10.60;6.40;;;;;;;7.23;47.21;101648.97;4864285;28;98056;-83
2022/04/17 04:46:58;;;;;;;10.02;5.85;;;;;;;7.41;46.75;101661.16;4876480;28;98059;-84
2022/04/17 04:49:30;;;;;;;13.00;6.07;;;;;;;7.50;47.07;101657.69;4861058;28;97254;-84
2022/04/17 04:52:05;;;;;;;14.10;6.05;;;;;;;7.41;47.10;101666.38;4846797;28;97372;-83
2022/04/17 04:54:31;;;;;;;10.23;6.50;;;;;;;7.52;46.88;101645.50;4845665;28;101708;-84
2022/04/17 04:56:57;;;;;;;12.82;6.30;;;;;;;7.54;46.94;101633.31;4845681;28;101245;-83
2022/04/17 04:59:23;;;;;;;9.07;5.30;;;;;;;7.81;47.03;101657.66;4861229;28;96825;-83
2022/04/17 05:01:49;;;;;;;14.13;6.55;;;;;;;8.06;45.84;101655.91;4861824;28;97030;-83
2022/04/17 05:04:20;;;;;;;9.65;5.75;;;;;;;8.25;45.32;101654.94;4861350;28;98027;-83
2022/04/17 05:06:46;;;;;;;10.77;5.43;;;;;;;8.37;45.17;101652.28;4860470;28;101122;-83
2022/04/17 05:09:12;;;;;;;12.65;5.63;;;;;;;8.57;44.48;101654.84;4860753;28;96892;-83
2022/04/17 05:11:38;;;;;;;10.80;5.70;;;;;;;8.73;44.17;101655.66;4845711;28;96951;-83
2022/04/17 05:14:09;;;;;;;12.35;6.00;;;;;;;8.45;44.43;101607.81;4860412;28;101451;-83
2022/04/17 05:16:36;;;;;;;10.13;5.68;;;;;;;8.60;44.03;101617.31;4860846;28;101335;-83
2022/04/17 05:19:27;;;;;;;9.93;5.53;;;;;;;9.00;44.28;101664.22;4861217;28;96714;-85
2022/04/17 05:21:48;;;;;;;11.38;6.15;;;;;;;9.18;43.82;101664.09;4862281;28;96975;-82
2022/04/17 05:24:15;;;;;;;18.10;6.38;;;;;;;9.40;42.72;101656.09;4875875;28;102140;-82
2022/04/17 05:26:40;;;;;;;10.80;5.57;;;;;;;9.44;42.72;101657.81;4860764;28;101098;-82
2022/04/17 05:29:06;;;;;;;10.75;5.60;;;;;;;9.63;43.06;101654.16;4860775;28;97050;-83
2022/04/17 05:31:32;;;;;;;10.65;6.10;;;;;;;9.90;42.35;101660.00;4845547;28;97003;-82
2022/04/17 05:33:58;;;;;;;10.20;5.88;;;;;;;10.06;41.80;101656.31;4845274;28;101530;-82
2022/04/17 05:36:24;;;;;;;11.55;6.57;;;;;;;10.07;41.36;101657.22;4843740;28;100952;-82
2022/04/17 05:38:49;;;;;;;12.20;6.43;;;;;;;10.28;41.33;101643.88;4875442;28;96981;-81
2022/04/17 05:41:15;;;;;;;13.50;6.43;;;;;;;10.52;41.08;101652.34;4848194;28;97147;-83
2022/04/17 05:43:41;;;;;;;15.60;6.60;;;;;;;10.64;40.21;101633.78;4867023;28;100295;-82
2022/04/17 05:46:06;;;;;;;12.68;6.82;;;;;;;11.08;40.05;101648.06;4882180;28;99600;-83
2022/04/17 05:48:32;;;;;;;11.10;6.00;;;;;;;11.32;39.82;101647.69;4888808;28;98125;-83
2022/04/17 05:50:58;;;;;;;11.07;5.78;;;;;;;11.32;39.58;101617.91;4907101;28;97091;-83
2022/04/17 05:53:24;;;;;;;10.85;6.45;;;;;;;11.76;38.78;101653.94;4857218;28;101026;-84
2022/04/17 05:55:50;;;;;;;11.98;6.32;;;;;;;11.94;38.53;101652.78;4860276;28;101133;-83
2022/04/17 05:58:16;;;;;;;12.98;5.70;;;;;;;12.24;37.89;101655.72;4870664;28;96869;-83
2022/04/17 06:00:43;;;;;;;11.02;6.13;;;;;;;12.41;37.18;101650.13;4876215;28;96963;-83
2022/04/17 06:03:08;;;;;;;8.73;5.07;;;;;;;12.19;36.96;101624.22;4847063;28;101756;-83
2022/04/17 06:05:34;;;;;;;10.52;4.70;;;;;;;12.56;37.11;101643.66;4847870;28;100645;-83
2022/04/17 06:07:59;;;;;;;7.97;4.00;;;;;;;12.72;36.55;101636.31;4850655;28;97142;-84
2022/04/17 06:10:25;;;;;;;7.43;4.55;;;;;;;12.77;36.73;101658.13;4892387;28;97852;-84
2022/04/17 06:12:51;;;;;;;7.13;4.25;;;;;;;12.88;35.84;101651.72;4874636;28;101026;-84
2022/04/17 06:15:16;;;;;;;8.30;4.15;;;;;;;13.08;35.71;101651.25;4872664;28;101432;-83
2022/04/17 06:17:42;;;;;;;7.53;4.05;;;;;;;13.42;35.13;101645.22;4877439;28;96770;-84
2022/04/17 06:20:13;;;;;;;6.88;3.53;;;;;;;13.61;34.88;101637.69;4884687;28;97223;-83
2022/04/17 06:22:39;;;;;;;7.13;3.28;;;;;;;14.08;33.60;101650.53;4872541;28;100477;-83
2022/04/17 06:25:07;;;;;;;5.75;2.90;;;;;;;14.30;32.61;101645.53;4894444;28;97866;-85
2022/04/17 06:27:43;;;;;;;5.30;3.20;;;;;;;14.54;32.55;101643.97;4898951;28;96774;-82
2022/04/17 06:30:19;;;;;;;5.43;3.00;;;;;;;14.79;32.22;101633.53;4884907;28;97040;-86
2022/04/17 06:32:47;;;;;;;5.85;3.03;;;;;;;15.07;31.90;101630.91;4866243;28;101308;-83
2022/04/17 06:35:14;;;;;;;4.25;2.58;;;;;;;15.31;31.02;101647.75;4872212;28;98423;-84
2022/04/17 06:37:54;;;;;;;7.63;2.83;;;;;;;15.36;31.90;101645.84;4878749;28;96966;-85
2022/04/17 06:40:22;;;;;;;5.70;3.00;;;;;;;15.55;31.32;101646.94;4864740;28;97150;-84
2022/04/17 06:42:49;;;;;;;5.82;3.13;;;;;;;15.72;30.86;101621.72;4868075;28;100891;-87
2022/04/17 06:45:16;;;;;;;7.13;3.83;;;;;;;15.88;31.14;101599.06;4867480;28;101902;-85
2022/04/17 06:47:42;;;;;;;7.40;3.72;;;;;;;16.30;30.29;101603.72;4857337;28;96996;-82
2022/04/17 06:50:08;;;;;;;8.50;3.20;;;;;;;16.72;30.03;101638.28;4885328;28;97041;-84
2022/04/17 06:52:33;;;;;;;6.22;2.65;;;;;;;17.05;29.41;101637.94;4891230;28;97971;-84
2022/04/17 06:54:59;;;;;;;4.13;2.20;;;;;;;17.26;29.02;101636.19;4879271;28;101404;-83
2022/04/17 06:57:29;;;;;;;3.70;2.00;;;;;;;17.27;28.16;101595.47;4875008;28;96784;-86
2022/04/17 06:59:55;;;;;;;4.40;2.20;;;;;;;17.36;28.71;101596.88;4856894;28;96989;-89
2022/04/17 07:02:21;;;;;;;5.63;2.70;;;;;;;17.81;28.01;101625.06;4851571;28;100832;-84
2022/04/17 07:04:46;;;;;;;4.10;2.28;;;;;;;18.07;27.99;101627.44;4872766;28;101851;-82
2022/04/17 07:07:12;;;;;;;2.78;2.10;;;;;;;18.36;28.41;101630.56;4857258;28;97073;-85
2022/04/17 07:09:37;;;;;;;4.43;2.50;;;;;;;18.22;27.79;101586.00;4859152;28;96917;-82
2022/04/17 07:12:04;;;;;;;5.57;2.63;;;;;;;18.69;27.12;101571.41;4843135;28;101502;-84
2022/04/17 07:14:30;;;;;;;4.68;2.22;;;;;;;18.93;26.55;101607.50;4842995;28;101315;-83
2022/04/17 07:16:56;;;;;;;7.25;2.40;;;;;;;19.06;26.91;101633.53;4857153;28;97105;-88
2022/04/17 07:19:21;;;;;;;3.20;2.22;;;;;;;19.41;26.21;101623.78;4861400;28;97327;-86
2022/04/17 07:21:47;;;;;;;3.88;2.30;;;;;;;19.53;26.44;101627.63;4877398;28;98426;-86
2022/04/17 07:24:12;;;;;;;4.53;2.80;;;;;;;20.03;25.86;101624.16;4876376;28;98007;-83
2022/04/17 07:26:38;;;;;;;3.55;2.22;;;;;;;20.26;25.63;101621.13;4860938;28;96718;-83
2022/04/17 07:29:04;;;;;;;4.32;2.55;;;;;;;20.49;25.12;101613.69;4855122;28;96924;-84
2022/04/17 07:31:31;;;;;;;4.00;2.50;;;;;;;20.35;25.33;101591.28;4855131;28;101657;-90
2022/04/17 07:33:57;;;;;;;3.63;2.10;;;;;;;20.54;25.55;101591.19;4880149;28;98388;-88
2022/04/17 07:36:23;;;;;;;3.90;2.03;;;;;;;21.01;25.32;101618.78;4863836;28;97033;-92
2022/04/17 07:38:48;;;;;;;4.07;2.33;;;;;;;21.00;24.64;101612.59;4880235;28;97375;-81
2022/04/17 07:41:14;;;;;;;3.17;1.90;;;;;;;21.37;24.49;101604.25;4896198;28;98138;-85
2022/04/17 07:43:39;;;;;;;3.63;2.22;;;;;;;21.44;24.63;101597.63;4882387;28;97446;-83
2022/04/17 07:46:05;;;;;;;4.07;2.20;;;;;;;;;;4896955;28;96768;-85
2022/04/17 07:48:30;;;;;;;4.40;2.28;;;;;;;22.11;23.99;101596.19;4896797;28;96879;-86
2022/04/17 07:50:56;;;;;;;5.32;2.20;;;;;;;22.18;24.14;101601.16;4880046;28;101387;-80
2022/04/17 07:53:22;;;;;;;4.47;2.13;;;;;;;22.56;23.33;101591.56;4895924;28;98401;-85
2022/04/17 07:55:50;;;;;;;3.63;2.08;;;;;;;22.63;23.18;101583.13;4866933;28;96688;-79
2022/04/17 07:58:24;;;;;;;4.15;2.45;;;;;;;22.85;22.91;101585.28;4889055;28;96918;-80
2022/04/17 08:00:59;;;;;;;3.45;2.40;;;;;;;22.60;22.67;101578.84;4885299;28;97782;-80
2022/04/17 08:06:02;;;;;;;3.85;2.30;;;;;;;23.18;22.77;101569.66;4893653;28;97239;-78
2022/04/17 08:08:28;;;;;;;3.40;2.13;;;;;;;23.13;22.85;101558.41;4864624;28;97023;-77
2022/04/17 08:10:53;;;;;;;3.25;2.25;;;;;;;23.66;22.84;101578.00;4850374;28;101812;-80
2022/04/17 08:13:19;;;;;;;4.82;2.33;;;;;;;23.83;21.78;101547.38;4916664;28;97334;-81
2022/04/17 08:15:45;;;;;;;3.53;2.13;;;;;;;24.15;21.57;101565.69;4884434;28;97305;-80
2022/04/17 08:18:11;;;;;;;3.30;2.05;;;;;;;24.48;22.52;101564.22;4883975;28;97051;-84
2022/04/17 08:20:37;;;;;;;5.53;2.30;;;;;;;24.59;22.04;101564.31;4879105;28;102113;-81
2022/04/17 08:23:02;;;;;;;4.85;2.58;;;;;;;24.99;21.78;101545.22;4873336;28;101101;-80
2022/04/17 08:25:28;;;;;;;3.85;2.47;;;;;;;25.44;21.06;101564.19;4861276;28;97503;-81
2022/04/17 08:27:55;;;;;;;5.22;2.80;;;;;;;25.54;20.67;101546.41;4892007;28;96872;-78
2022/04/17 08:30:24;;;;;;;4.35;2.47;;;;;;;25.65;21.01;101554.44;4873378;28;97627;-79
2022/04/17 08:32:50;;;;;;;4.43;2.60;;;;;;;25.43;20.93;101551.75;4878065;28;101752;-75
2022/04/17 08:35:16;;;;;;;4.25;2.40;;;;;;;25.62;20.94;101532.34;4886767;28;97452;-77
2022/04/17 08:37:43;;;;;;;3.50;2.22;;;;;;;25.92;20.47;101545.25;4887420;28;97299;-78
2022/04/17 08:40:10;;;;;;;4.00;2.35;;;;;;;25.85;20.14;101536.78;4863859;28;99705;-85
2022/04/17 08:42:36;;;;;;;3.90;2.30;;;;;;;25.82;20.40;101536.16;4878294;28;99042;-89
2022/04/17 08:45:02;;;;;;;3.15;2.47;;;;;;;26.19;20.53;101529.56;4890995;28;97577;-79
2022/04/17 08:47:28;;;;;;;7.05;2.92;;;;;;;26.82;20.33;101528.91;4889546;28;97172;-80
2022/04/17 08:49:54;;;;;;;8.05;2.72;;;;;;;26.76;19.48;101529.44;4873772;28;101077;-81
2022/04/17 08:52:21;;;;;;;4.82;2.33;;;;;;;27.10;19.25;101520.22;4893792;28;98198;-81
2022/04/17 08:54:48;;;;;;;4.05;2.53;;;;;;;27.22;18.39;101502.19;4873283;28;96891;-80
2022/04/17 08:57:16;;;;;;;4.63;2.70;;;;;;;27.19;18.99;101517.75;4877910;28;98155;-82
2022/04/17 08:59:42;;;;;;;3.08;1.80;;;;;;;27.31;18.41;101520.28;4859708;28;101557;-79
2022/04/17 09:02:12;;;;;;;4.38;2.25;;;;;;;27.38;18.69;101523.28;4893255;28;101838;-79
2022/04/17 09:04:39;;;;;;;4.78;2.55;;;;;;;27.57;18.76;101525.22;4878760;28;96738;-80
2022/04/17 09:07:10;;;;;;;3.92;2.10;;;;;;;27.48;18.84;101504.47;4881064;28;96987;-77
2022/04/17 09:09:41;;;;;;;5.28;2.30;;;;;;;27.67;17.94;101511.81;4880844;28;98020;-82
2022/04/17 09:12:07;;;;;;;5.32;2.55;;;;;;;27.29;18.85;101486.34;4877472;28;101388;-79
2022/04/17 09:14:40;;;;;;;4.95;2.30;;;;;;;28.11;19.37;101498.94;4878497;28;96791;-78
2022/04/17 09:17:10;;;;;;;4.45;2.17;;;;;;;28.38;18.38;101495.59;4866132;28;97573;-79
2022/04/17 09:19:36;;;;;;;5.13;2.05;;;;;;;28.39;18.07;101490.06;4894803;28;98307;-83
2022/04/17 09:22:02;;;;;;;4.95;2.72;;;;;;;28.55;18.09;101492.22;4888603;28;98568;-86
2022/04/17 09:24:27;;;;;;;2.50;2.03;;;;;;;28.49;17.88;101492.78;4875314;28;96876;-85
2022/04/17 09:26:59;;;;;;;3.67;2.28;;;;;;;28.25;17.20;101474.25;4910766;28;97255;-86
2022/04/17 09:29:26;;;;;;;3.58;2.00;;;;;;;28.18;17.92;101487.44;4912974;28;98168;-85
2022/04/17 09:32:12;;;;;;;2.92;2.15;;;;;;;28.50;17.01;101478.28;4876312;28;99995;-82
2022/04/17 09:34:49;;;;;;;4.05;2.20;;;;;;;28.56;17.54;101482.28;4886724;28;96941;-85
2022/04/17 09:37:22;;;;;;;3.00;2.08;;;;;;;28.47;17.34;101458.81;4887643;28;97736;-86
2022/04/17 09:39:49;;;;;;;3.80;1.80;;;;;;;28.27;18.06;101463.31;4881196;28;102123;-85
2022/04/17 09:42:22;;;;;;;3.42;2.33;;;;;;;27.69;17.44;101454.06;4896551;28;97425;-84
2022/04/17 09:44:54;;;;;;;3.83;2.38;;;;;;;27.69;17.48;101445.97;4881310;28;96837;-85
2022/04/17 09:47:20;;;;;;;3.95;2.45;;;;;;;27.56;18.41;101453.41;4897006;28;97108;-84
2022/04/17 09:49:57;;;;;;;3.85;2.13;;;;;;;27.48;18.33;101450.53;4910083;28;101849;-87
2022/04/17 09:52:31;;;;;;;4.45;2.28;;;;;;;27.06;18.35;101451.41;4860952;28;101879;-83
2022/04/17 09:55:03;;;;;;;2.53;1.90;;;;;;;26.90;17.69;101424.09;4881171;28;96772;-89
2022/04/17 09:57:37;;;;;;;4.20;2.40;;;;;;;26.67;18.36;101433.28;4879748;28;96848;-85
2022/04/17 10:00:06;;;;;;;4.60;3.05;;;;;;;26.31;19.14;101448.81;4877627;28;98283;-85
2022/04/17 10:02:31;;;;;;;3.63;2.10;;;;;;;26.13;19.10;101449.34;4890541;28;101923;-85
2022/04/17 10:04:58;;;;;;;3.20;2.30;;;;;;;25.75;19.32;101447.03;4889826;28;96997;-85
2022/04/17 10:07:25;;;;;;;4.80;2.05;;;;;;;25.46;19.58;101444.84;4894916;28;96804;-84
2022/04/17 10:09:51;;;;;;;3.15;2.05;;;;;;;25.38;19.50;101438.38;4879126;28;101641;-84
2022/04/17 10:12:20;;;;;;;3.40;2.10;;;;;;;25.06;20.06;101423.75;4895465;28;100762;-84
2022/04/17 10:14:51;;;;;;;3.25;1.95;;;;;;;24.74;20.31;101439.66;4889870;28;97384;-84
2022/04/17 10:17:20;;;;;;;2.50;2.08;;;;;;;24.27;20.54;101449.44;4892362;28;97607;-84
2022/04/17 10:19:47;;;;;;;4.55;1.70;;;;;;;23.67;20.75;101437.66;4866101;28;101527;-85
2022/04/17 10:22:14;;;;;;;3.97;2.38;;;;;;;23.61;20.80;101432.72;4881257;28;101490;-83
2022/04/17 10:24:44;;;;;;;3.70;2.28;;;;;;;23.18;21.30;101433.06;4865354;28;96787;-84
2022/04/17 10:27:13;;;;;;;2.83;1.87;;;;;;;22.96;22.07;101432.88;4897640;28;97529;-83
2022/04/17 10:29:41;;;;;;;3.63;2.22;;;;;;;22.73;22.33;101434.41;4866356;28;100859;-82
2022/04/17 10:32:25;;;;;;;2.17;1.52;;;;;;;22.68;22.34;101431.16;4881724;28;101884;-81
2022/04/17 10:35:17;;;;;;;3.25;1.88;;;;;;;22.13;21.96;101420.44;4897913;28;97003;-80
2022/04/17 10:37:55;;;;;;;2.90;1.63;;;;;;;21.45;22.16;101409.69;4879756;28;97057;-79
2022/04/17 10:40:21;;;;;;;3.22;2.03;;;;;;;21.26;22.60;101401.94;4914510;28;97866;-85
2022/04/17 10:42:58;;;;;;;4.93;2.20;;;;;;;20.86;23.50;101409.72;4882285;28;98419;-88
2022/04/17 10:45:23;;;;;;;6.03;2.60;;;;;;;21.05;23.81;101408.59;4881822;28;96728;-83
2022/04/17 10:48:05;;;;;;;3.17;2.20;;;;;;;20.70;23.46;101390.22;4881968;28;97040;-82
2022/04/17 10:50:49;;;;;;;2.85;2.00;;;;;;;20.69;24.03;101397.38;4896727;28;101565;-83
2022/04/17 10:53:31;;;;;;;4.63;1.90;;;;;;;20.51;24.13;101385.97;4896103;28;101327;-82
2022/04/17 10:56:03;;;;;;;2.80;1.60;;;;;;;20.50;24.35;101383.38;4886543;28;96861;-82
2022/04/17 10:58:37;;;;;;;3.47;1.80;;;;;;;20.35;24.34;101390.44;4911842;28;96824;-83
2022/04/17 11:01:04;;;;;;;6.07;1.83;;;;;;;20.07;24.58;101378.72;4880628;28;101267;-82
2022/04/17 11:03:33;;;;;;;2.25;1.70;;;;;;;19.98;24.91;101387.22;4874512;28;101234;-84
2022/04/17 11:06:24;;;;;;;3.30;2.15;;;;;;;19.74;24.66;101376.16;4875593;28;96867;-83
2022/04/17 11:08:57;;;;;;;2.70;1.70;;;;;;;19.51;24.56;101379.19;4878781;28;96729;-81
2022/04/17 11:11:34;;;;;;;2.33;1.60;;;;;;;19.45;25.11;101364.41;4872307;28;97671;-83
2022/04/17 11:14:11;;;;;;;3.92;2.00;;;;;;;19.46;25.57;101374.13;4881424;28;97879;-84
2022/04/17 11:16:51;;;;;;;2.38;1.52;;;;;;;19.07;24.45;101345.19;4914478;28;96719;-81
2022/04/17 11:19:22;;;;;;;3.95;1.58;;;;;;;18.89;25.42;101350.53;4898102;28;97076;-82
2022/04/17 11:21:53;;;;;;;3.20;1.73;;;;;;;19.06;25.82;101370.09;4881539;28;98164;-82
2022/04/17 11:24:19;;;;;;;;;;;;;;;18.87;26.00;101356.88;4882429;28;97980;-83
2022/04/17 11:26:52;;;;;;;4.60;2.25;;;;;;;18.74;25.17;101362.00;4887648;28;96895;-81
2022/04/17 11:29:44;;;;;;;3.17;2.03;;;;;;;18.59;25.32;101354.75;4894306;28;97364;-86
2022/04/17 11:32:18;;;;;;;3.92;1.83;;;;;;;18.39;26.14;101346.00;4878158;28;97918;-77
2022/04/17 11:34:54;;;;;;;4.30;1.85;;;;;;;18.47;26.25;101357.13;4895276;28;101168;-80
2022/04/17 11:37:20;;;;;;;3.53;2.00;;;;;;;18.48;26.04;101361.50;4866520;28;96673;-81
2022/04/17 11:39:46;;;;;;;4.03;2.10;;;;;;;18.30;26.41;101342.00;4866101;28;97181;-80
2022/04/17 11:42:12;;;;;;;4.90;2.17;;;;;;;18.17;27.01;101301.03;4880343;28;101302;-80
2022/04/17 11:44:44;;;;;;;4.20;2.10;;;;;;;18.17;26.81;101303.69;4873425;28;101623;-82